Time;durP1;ratioP1;P1;durP2;ratioP2;P2;SDS_P1;SDS_P2;PMS_P1;PMS_P2;Temp;Humidity;BMP_temperature;BMP_pressure;BME280_temperature;BME280_humidity;BME280_pressure;Samples;Min_cycle;Max_cycle;Signal;HPM_P1;HPM_P2
2021/03/04 00:00:32;;;;;;;18.58;10.48;;;6.80;86.30;;;;;;4977464;28;20291;-66
2021/03/04 00:02:58;;;;;;;16.95;10.23;;;6.80;86.50;;;;;;4994415;28;20108;-67
2021/03/04 00:05:24;;;;;;;20.52;10.18;;;6.80;87.00;;;;;;4995391;28;20463;-66
2021/03/04 00:07:50;;;;;;;18.77;10.27;;;6.80;87.10;;;;;;4991985;28;20039;-69
2021/03/04 00:10:19;;;;;;;21.63;11.90;;;6.80;87.10;;;;;;4992163;28;20126;-66
2021/03/04 00:12:45;;;;;;;21.70;11.07;;;6.70;86.90;;;;;;4992182;28;20452;-66
2021/03/04 00:15:13;;;;;;;16.63;9.57;;;6.70;87.00;;;;;;4991659;28;20034;-68
2021/03/04 00:17:39;;;;;;;19.48;10.90;;;6.70;87.60;;;;;;4991763;28;20029;-65
2021/03/04 00:20:11;;;;;;;17.80;9.93;;;6.80;87.60;;;;;;4992454;28;20383;-65
2021/03/04 00:22:36;;;;;;;21.67;11.73;;;6.80;87.30;;;;;;4982504;28;20105;-65
2021/03/04 00:25:03;;;;;;;20.02;11.27;;;6.80;87.20;;;;;;4992529;28;20555;-65
2021/03/04 00:27:29;;;;;;;17.25;9.82;;;6.80;86.70;;;;;;4995007;28;20049;-66
2021/03/04 00:29:55;;;;;;;16.35;9.32;;;6.70;86.10;;;;;;4991853;28;20113;-65
2021/03/04 00:32:21;;;;;;;16.42;9.50;;;6.70;85.60;;;;;;4992652;28;20412;-65
2021/03/04 00:34:46;;;;;;;18.67;10.80;;;6.70;85.50;;;;;;4993101;28;20084;-65
2021/03/04 00:37:12;;;;;;;18.55;10.45;;;6.70;85.10;;;;;;4992528;28;20384;-70
2021/03/04 00:39:37;;;;;;;18.20;10.02;;;6.70;84.80;;;;;;4993148;28;20023;-65
2021/03/04 00:42:04;;;;;;;18.92;10.02;;;6.70;85.20;;;;;;4992545;28;20033;-66
2021/03/04 00:44:30;;;;;;;16.63;10.05;;;6.70;85.00;;;;;;4992089;28;20022;-66
2021/03/04 00:46:55;;;;;;;20.95;10.88;;;6.70;84.90;;;;;;4992608;28;20038;-66
2021/03/04 00:49:22;;;;;;;19.02;11.05;;;6.70;84.80;;;;;;4992218;28;20383;-66
2021/03/04 00:51:48;;;;;;;19.85;10.68;;;6.60;84.60;;;;;;4993348;28;20459;-66
2021/03/04 00:54:14;;;;;;;19.13;10.73;;;6.70;85.20;;;;;;4991850;28;20037;-67
2021/03/04 00:56:39;;;;;;;20.73;11.07;;;6.60;85.60;;;;;;4992782;28;20037;-66
2021/03/04 00:59:05;;;;;;;22.88;11.65;;;6.60;85.80;;;;;;4992584;28;20031;-66
2021/03/04 01:01:31;;;;;;;20.10;10.75;;;6.60;85.80;;;;;;4992967;28;20093;-66
2021/03/04 01:03:57;;;;;;;20.63;10.13;;;6.60;85.70;;;;;;4992177;28;20038;-67
2021/03/04 01:06:23;;;;;;;21.13;10.07;;;6.50;85.60;;;;;;4991982;28;20471;-66
2021/03/04 01:08:48;;;;;;;19.15;8.38;;;6.60;85.00;;;;;;4992251;28;20026;-67
2021/03/04 01:11:17;;;;;;;13.77;7.85;;;6.60;82.80;;;;;;4991773;28;20030;-66
2021/03/04 01:13:44;;;;;;;16.25;9.48;;;6.60;82.10;;;;;;4992410;28;20033;-68
2021/03/04 01:16:09;;;;;;;18.33;9.43;;;6.60;83.10;;;;;;4998026;28;20456;-69
2021/03/04 01:18:36;;;;;;;14.48;8.10;;;6.50;83.60;;;;;;4991489;28;20053;-66
2021/03/04 01:21:03;;;;;;;19.45;8.85;;;6.50;83.40;;;;;;4991869;28;20053;-66
2021/03/04 01:23:29;;;;;;;14.40;7.95;;;6.50;82.60;;;;;;4994694;28;20030;-66
2021/03/04 01:25:55;;;;;;;14.55;7.63;;;6.50;82.50;;;;;;4991684;28;20084;-66
2021/03/04 01:28:21;;;;;;;17.10;7.90;;;6.40;82.60;;;;;;4991224;28;20026;-66
2021/03/04 01:30:47;;;;;;;13.85;8.32;;;6.40;81.90;;;;;;4991932;28;20530;-66
2021/03/04 01:33:12;;;;;;;12.93;8.02;;;6.40;82.30;;;;;;4990878;28;20061;-70
2021/03/04 01:35:38;;;;;;;15.73;9.10;;;6.40;83.20;;;;;;4992092;28;20352;-65
2021/03/04 01:38:03;;;;;;;15.35;8.85;;;6.30;83.20;;;;;;4992212;28;20053;-65
2021/03/04 01:40:29;;;;;;;17.38;8.60;;;6.40;83.30;;;;;;4991225;28;20030;-65
2021/03/04 01:42:55;;;;;;;15.38;8.77;;;6.30;82.80;;;;;;4992034;28;20422;-65
2021/03/04 01:45:20;;;;;;;16.65;7.85;;;6.30;83.00;;;;;;4991184;28;20049;-65
2021/03/04 01:47:53;;;;;;;15.15;7.88;;;6.30;82.90;;;;;;4991754;28;20035;-65
2021/03/04 01:50:19;;;;;;;13.57;8.30;;;6.30;82.80;;;;;;4990990;28;20034;-66
2021/03/04 01:52:45;;;;;;;14.13;8.02;;;6.30;83.40;;;;;;4993795;28;20387;-67
2021/03/04 01:55:14;;;;;;;13.70;7.63;;;6.30;83.40;;;;;;4991253;28;20027;-69
2021/03/04 01:57:41;;;;;;;17.08;8.00;;;6.20;83.00;;;;;;4994497;28;20035;-65
2021/03/04 02:00:08;;;;;;;13.88;7.72;;;6.20;82.50;;;;;;4991565;28;20035;-65
2021/03/04 02:02:34;;;;;;;15.50;7.53;;;6.20;82.40;;;;;;4991088;28;20034;-65
2021/03/04 02:05:00;;;;;;;14.13;7.68;;;6.10;82.10;;;;;;4977342;28;20109;-66
2021/03/04 02:07:45;;;;;;;13.50;8.10;;;6.20;82.30;;;;;;4991436;28;20049;-67
2021/03/04 02:10:38;;;;;;;13.80;7.47;;;6.10;82.80;;;;;;4991857;28;20031;-69
2021/03/04 02:13:16;;;;;;;14.02;7.65;;;6.10;83.20;;;;;;4991691;28;20038;-65
2021/03/04 02:15:59;;;;;;;11.18;7.07;;;6.10;83.30;;;;;;4991218;28;20038;-66
2021/03/04 02:18:28;;;;;;;12.65;7.63;;;6.10;83.10;;;;;;4973732;28;20567;-65
2021/03/04 02:21:30;;;;;;;13.52;7.55;;;6.10;85.90;;;;;;4991295;28;20034;-65
2021/03/04 02:24:05;;;;;;;11.40;6.72;;;6.10;82.40;;;;;;4998462;28;20038;-65
2021/03/04 02:27:07;;;;;;;10.95;6.88;;;6.10;82.80;;;;;;4990472;28;20034;-65
2021/03/04 02:29:39;;;;;;;12.60;7.30;;;6.10;82.70;;;;;;4957808;28;20042;-66
2021/03/04 02:32:07;;;;;;;13.02;7.18;;;6.00;83.10;;;;;;4991738;28;20026;-65
2021/03/04 02:34:34;;;;;;;11.57;6.97;;;6.00;83.20;;;;;;4990512;28;20530;-65
2021/03/04 02:37:01;;;;;;;11.20;6.90;;;5.90;83.10;;;;;;4973438;28;20034;-65
2021/03/04 02:39:28;;;;;;;11.15;7.03;;;5.90;83.00;;;;;;4990639;28;20110;-65
2021/03/04 02:41:54;;;;;;;17.90;8.23;;;5.90;83.10;;;;;;4991116;28;20379;-65
2021/03/04 02:44:23;;;;;;;11.75;6.68;;;5.90;83.10;;;;;;4990755;28;20022;-65
2021/03/04 02:46:50;;;;;;;13.82;7.40;;;5.90;83.00;;;;;;4977961;28;20065;-65
2021/03/04 02:49:17;;;;;;;15.43;6.78;;;5.90;83.10;;;;;;4990271;28;20376;-69
2021/03/04 02:51:45;;;;;;;10.88;6.90;;;5.90;83.10;;;;;;4992938;28;20034;-65
2021/03/04 02:54:11;;;;;;;12.80;6.93;;;5.90;83.20;;;;;;4993974;28;20404;-66
2021/03/04 02:56:39;;;;;;;13.20;6.43;;;5.90;81.70;;;;;;4990516;28;20050;-65
2021/03/04 02:59:07;;;;;;;13.02;6.57;;;5.90;80.70;;;;;;4992746;28;20471;-65
2021/03/04 03:01:34;;;;;;;12.00;6.28;;;5.90;80.30;;;;;;4990304;28;20030;-65
2021/03/04 03:04:01;;;;;;;11.63;6.70;;;5.90;79.90;;;;;;4991936;28;20035;-65
2021/03/04 03:06:29;;;;;;;11.68;6.75;;;5.90;79.90;;;;;;4993945;28;20136;-65
2021/03/04 03:08:54;;;;;;;10.60;6.57;;;5.90;79.60;;;;;;4994260;28;20031;-65
2021/03/04 03:11:21;;;;;;;12.18;6.47;;;6.00;79.20;;;;;;4992604;28;20097;-66
2021/03/04 03:13:50;;;;;;;12.05;6.43;;;6.00;79.20;;;;;;4993689;28;20030;-65
2021/03/04 03:16:16;;;;;;;13.75;6.97;;;6.00;79.10;;;;;;4992411;28;20038;-69
2021/03/04 03:18:42;;;;;;;15.57;7.65;;;6.00;79.40;;;;;;4994386;28;20053;-66
2021/03/04 03:21:08;;;;;;;11.48;6.60;;;6.00;79.60;;;;;;4996961;28;20475;-65
2021/03/04 03:23:34;;;;;;;10.98;6.50;;;6.00;79.80;;;;;;4997715;28;20481;-65
2021/03/04 03:25:59;;;;;;;13.95;7.13;;;6.00;79.90;;;;;;4993286;28;20027;-66
2021/03/04 03:28:25;;;;;;;12.75;7.18;;;6.00;80.50;;;;;;4994524;28;20034;-67
2021/03/04 03:30:51;;;;;;;11.55;7.43;;;6.00;80.60;;;;;;4993242;28;20454;-65
2021/03/04 03:33:19;;;;;;;13.20;6.68;;;6.00;80.80;;;;;;4994631;28;20046;-69
2021/03/04 03:35:45;;;;;;;12.68;6.80;;;6.00;80.90;;;;;;4989355;28;20084;-67
2021/03/04 03:38:12;;;;;;;14.02;7.63;;;5.90;81.10;;;;;;4998650;28;20026;-65
2021/03/04 03:40:41;;;;;;;15.25;8.00;;;5.90;81.50;;;;;;5001293;28;20062;-65
2021/03/04 03:43:09;;;;;;;14.02;7.47;;;5.90;81.90;;;;;;5000756;28;20049;-65
2021/03/04 03:45:43;;;;;;;14.20;7.00;;;5.80;81.90;;;;;;5001465;28;20167;-66
2021/03/04 03:48:11;;;;;;;17.23;8.18;;;5.90;82.30;;;;;;5002116;28;20399;-65
2021/03/04 03:50:38;;;;;;;13.32;7.53;;;5.90;82.10;;;;;;4983640;28;20022;-66
2021/03/04 03:53:04;;;;;;;12.68;6.82;;;5.90;82.10;;;;;;4997270;28;20076;-65
2021/03/04 03:55:30;;;;;;;14.43;6.70;;;5.90;81.50;;;;;;4999707;28;20414;-65
2021/03/04 03:57:58;;;;;;;14.82;7.13;;;6.00;80.60;;;;;;4984108;28;20042;-65
2021/03/04 04:00:25;;;;;;;14.80;7.68;;;6.10;79.70;;;;;;5002668;28;20851;-65
2021/03/04 04:02:58;;;;;;;12.18;7.32;;;6.10;79.20;;;;;;5001395;28;20049;-65
2021/03/04 04:05:25;;;;;;;11.40;7.10;;;6.10;78.80;;;;;;4977986;28;20034;-65
2021/03/04 04:07:54;;;;;;;11.65;6.53;;;6.10;78.70;;;;;;4998904;28;20042;-65
2021/03/04 04:10:23;;;;;;;12.93;6.85;;;6.10;78.70;;;;;;5001948;28;20027;-65
2021/03/04 04:12:49;;;;;;;14.13;7.00;;;6.00;78.80;;;;;;5003265;28;20026;-65
2021/03/04 04:15:14;;;;;;;12.57;6.10;;;6.00;79.10;;;;;;5001208;28;20030;-69
2021/03/04 04:17:40;;;;;;;10.43;5.88;;;6.00;79.00;;;;;;4998261;28;20030;-65
2021/03/04 04:20:06;;;;;;;11.60;6.63;;;5.90;78.90;;;;;;4999949;28;20037;-66
2021/03/04 04:22:33;;;;;;;12.18;6.22;;;5.90;79.00;;;;;;4998007;28;20033;-65
2021/03/04 04:24:59;;;;;;;12.05;6.70;;;5.90;77.70;;;;;;5002346;28;20368;-66
2021/03/04 04:27:28;;;;;;;10.07;6.05;;;5.90;77.80;;;;;;4999816;28;20045;-66
2021/03/04 04:29:53;;;;;;;11.45;6.82;;;5.90;78.50;;;;;;5003296;28;20534;-65
2021/03/04 04:32:19;;;;;;;14.25;6.60;;;5.80;79.70;;;;;;4999760;28;20133;-66
2021/03/04 04:34:45;;;;;;;11.23;6.28;;;5.70;80.60;;;;;;5000514;28;20060;-67
2021/03/04 04:37:11;;;;;;;10.57;6.43;;;5.70;81.20;;;;;;5000694;28;20030;-65
2021/03/04 04:39:36;;;;;;;13.50;7.68;;;5.60;81.30;;;;;;4998026;28;20712;-66
2021/03/04 04:42:02;;;;;;;14.77;6.68;;;5.60;81.70;;;;;;5002672;28;20558;-65
2021/03/04 04:44:28;;;;;;;11.15;6.80;;;5.50;82.40;;;;;;5000267;28;20419;-66
2021/03/04 04:46:54;;;;;;;11.98;6.78;;;5.40;82.60;;;;;;4982840;28;20095;-65
2021/03/04 04:49:19;;;;;;;12.52;7.20;;;5.40;83.00;;;;;;4998813;28;20026;-65
2021/03/04 04:51:45;;;;;;;10.05;6.68;;;5.30;83.40;;;;;;5001453;28;20026;-66
2021/03/04 04:54:11;;;;;;;12.77;7.10;;;5.40;90.20;;;;;;5002149;28;20032;-65
2021/03/04 04:56:37;;;;;;;13.00;6.68;;;5.30;90.50;;;;;;4982343;28;20030;-65
2021/03/04 04:59:03;;;;;;;14.80;7.75;;;5.30;91.20;;;;;;5000813;28;20065;-66
2021/03/04 05:01:29;;;;;;;12.68;6.53;;;5.30;92.00;;;;;;4999371;28;20073;-66
2021/03/04 05:03:54;;;;;;;14.75;7.93;;;5.20;91.40;;;;;;4999142;28;20090;-65
2021/03/04 05:06:20;;;;;;;12.52;7.40;;;5.20;91.90;;;;;;5001623;28;20096;-65
2021/03/04 05:08:46;;;;;;;16.27;8.93;;;5.20;92.40;;;;;;4997024;28;20097;-66
2021/03/04 05:11:12;;;;;;;16.27;8.88;;;5.20;92.20;;;;;;4999831;28;20430;-65
2021/03/04 05:13:38;;;;;;;13.60;7.97;;;5.20;92.20;;;;;;4999104;28;20113;-66
2021/03/04 05:16:04;;;;;;;14.38;8.30;;;5.30;92.00;;;;;;4999685;28;20386;-65
2021/03/04 05:18:30;;;;;;;16.77;8.93;;;5.20;91.80;;;;;;4983409;28;20033;-65
2021/03/04 05:20:56;;;;;;;15.52;8.57;;;5.30;91.20;;;;;;4981805;28;20445;-67
2021/03/04 05:23:21;;;;;;;13.13;7.13;;;5.30;91.40;;;;;;4997415;28;20053;-65
2021/03/04 05:25:47;;;;;;;18.20;7.88;;;5.30;91.30;;;;;;4982496;28;20033;-66
2021/03/04 05:28:13;;;;;;;19.83;8.55;;;5.30;91.10;;;;;;4996162;28;20046;-66
2021/03/04 05:30:40;;;;;;;15.88;7.20;;;5.30;90.90;;;;;;4993840;28;20105;-67
2021/03/04 05:33:06;;;;;;;17.10;7.47;;;5.30;90.80;;;;;;4988210;28;20158;-66
2021/03/04 05:35:32;;;;;;;12.90;6.85;;;5.30;90.90;;;;;;4981299;28;20353;-66
2021/03/04 05:37:58;;;;;;;11.52;6.90;;;5.20;90.90;;;;;;4981400;28;20152;-67
2021/03/04 05:40:24;;;;;;;11.80;6.65;;;5.20;90.80;;;;;;4977081;28;20110;-65
2021/03/04 05:42:50;;;;;;;13.35;7.65;;;5.20;90.70;;;;;;4979305;28;20049;-65
2021/03/04 05:45:19;;;;;;;14.73;7.40;;;5.20;90.40;;;;;;4977444;28;20035;-69
2021/03/04 05:47:47;;;;;;;11.93;7.13;;;5.20;90.40;;;;;;4983156;28;20042;-65
2021/03/04 05:50:16;;;;;;;11.70;6.43;;;5.10;90.50;;;;;;4982474;28;20042;-65
2021/03/04 05:52:59;;;;;;;16.85;7.22;;;5.10;90.60;;;;;;4971909;28;20025;-66
2021/03/04 05:55:26;;;;;;;12.45;5.97;;;5.10;90.90;;;;;;4971790;28;20523;-67
2021/03/04 05:57:52;;;;;;;12.25;7.03;;;5.00;90.60;;;;;;4972556;28;20031;-66
2021/03/04 06:00:19;;;;;;;13.35;6.53;;;5.00;90.50;;;;;;4973671;28;20371;-69
2021/03/04 06:02:46;;;;;;;14.65;6.95;;;4.90;90.80;;;;;;4979321;28;20583;-65
2021/03/04 06:05:13;;;;;;;13.68;7.05;;;4.90;91.00;;;;;;4954743;28;20035;-68
2021/03/04 06:07:44;;;;;;;18.05;7.82;;;4.90;90.80;;;;;;4971169;28;20039;-65
2021/03/04 06:10:11;;;;;;;13.27;8.15;;;4.80;84.60;;;;;;4986988;28;20034;-66
2021/03/04 06:12:37;;;;;;;17.02;8.18;;;4.80;84.40;;;;;;4989396;28;20030;-68
2021/03/04 06:15:05;;;;;;;11.50;6.78;;;4.80;84.40;;;;;;4977528;28;20031;-65
2021/03/04 06:17:31;;;;;;;13.88;7.63;;;4.80;84.50;;;;;;4971400;28;20063;-65
2021/03/04 06:19:59;;;;;;;12.90;6.50;;;4.80;84.60;;;;;;4972380;28;20503;-65
2021/03/04 06:22:29;;;;;;;14.35;6.70;;;4.80;84.70;;;;;;4971096;28;20030;-65
2021/03/04 06:24:57;;;;;;;15.70;7.80;;;4.80;85.20;;;;;;4972593;28;20488;-65
2021/03/04 06:27:30;;;;;;;14.77;7.63;;;4.70;85.60;;;;;;4971591;28;20047;-66
2021/03/04 06:29:58;;;;;;;15.82;8.05;;;4.70;85.30;;;;;;4985496;28;20377;-65
2021/03/04 06:32:24;;;;;;;21.17;8.65;;;4.70;85.50;;;;;;4990987;28;20042;-65
2021/03/04 06:35:13;;;;;;;24.98;10.13;;;4.70;85.50;;;;;;4980209;28;20050;-71
2021/03/04 06:37:44;;;;;;;16.48;8.65;;;4.70;85.30;;;;;;4990574;28;20487;-66
2021/03/04 06:40:31;;;;;;;19.55;8.98;;;4.80;85.20;;;;;;4993820;28;20026;-67
2021/03/04 06:42:59;;;;;;;16.77;7.95;;;4.80;85.00;;;;;;4980619;28;20118;-68
2021/03/04 06:45:37;;;;;;;15.70;8.02;;;4.90;84.50;;;;;;4957539;28;20035;-65
2021/03/04 06:48:10;;;;;;;16.35;8.77;;;4.90;84.10;;;;;;4975381;28;20572;-64
2021/03/04 06:50:36;;;;;;;24.95;9.38;;;5.00;84.00;;;;;;4957840;28;20635;-66
2021/03/04 06:53:22;;;;;;;17.40;9.38;;;5.00;84.10;;;;;;4957344;28;20123;-65
2021/03/04 06:56:04;;;;;;;19.60;10.48;;;5.10;84.00;;;;;;4975198;28;20034;-66
2021/03/04 06:58:36;;;;;;;17.42;9.52;;;5.20;84.00;;;;;;4974605;28;20027;-64
2021/03/04 07:01:10;;;;;;;17.52;9.35;;;5.20;83.80;;;;;;4975262;28;20475;-63
2021/03/04 07:03:42;;;;;;;15.40;8.75;;;5.30;83.40;;;;;;4974524;28;20798;-64
2021/03/04 07:06:10;;;;;;;16.75;9.77;;;5.30;83.00;;;;;;4966265;28;20542;-64
2021/03/04 07:08:38;;;;;;;20.20;9.05;;;5.40;82.40;;;;;;4973820;28;20871;-65
2021/03/04 07:11:09;;;;;;;15.63;8.93;;;5.50;81.90;;;;;;4974929;28;20478;-66
2021/03/04 07:13:37;;;;;;;19.90;9.95;;;5.70;81.80;;;;;;4974358;28;20365;-64
2021/03/04 07:16:06;;;;;;;22.10;10.20;;;5.80;80.90;;;;;;4974964;28;20034;-65
2021/03/04 07:18:39;;;;;;;19.85;9.30;;;5.90;81.30;;;;;;4957019;28;20026;-65
2021/03/04 07:21:14;;;;;;;16.75;9.77;;;6.10;80.90;;;;;;4973449;28;20035;-66
2021/03/04 07:23:44;;;;;;;18.30;9.38;;;6.20;80.80;;;;;;4964238;28;20023;-65
2021/03/04 07:26:11;;;;;;;21.60;10.02;;;6.40;81.20;;;;;;4978967;28;20022;-65
2021/03/04 07:28:41;;;;;;;18.45;10.23;;;6.60;82.90;;;;;;4975469;28;20035;-66
2021/03/04 07:31:07;;;;;;;21.00;9.82;;;6.80;79.70;;;;;;4975036;28;20062;-65
2021/03/04 07:33:36;;;;;;;19.80;9.95;;;7.00;79.00;;;;;;4981597;28;20109;-65
2021/03/04 07:36:07;;;;;;;22.10;10.77;;;7.10;77.50;;;;;;4993992;28;20527;-66
2021/03/04 07:38:33;;;;;;;18.63;9.93;;;7.30;74.10;;;;;;4992149;28;20065;-65
2021/03/04 07:41:12;;;;;;;22.05;10.65;;;7.40;73.90;;;;;;4993642;28;20058;-65
2021/03/04 07:43:48;;;;;;;16.33;9.77;;;7.50;72.60;;;;;;4993166;28;20479;-65
2021/03/04 07:46:38;;;;;;;18.95;10.38;;;7.60;72.90;;;;;;4993613;28;20049;-65
2021/03/04 07:49:08;;;;;;;24.08;10.85;;;7.70;72.80;;;;;;4993864;28;20113;-65
2021/03/04 07:51:47;;;;;;;19.10;9.77;;;7.80;73.00;;;;;;4980105;28;20066;-65
2021/03/04 07:54:15;;;;;;;20.67;9.73;;;8.00;69.90;;;;;;4993421;28;20039;-66
2021/03/04 07:56:41;;;;;;;17.90;9.13;;;8.10;70.10;;;;;;4992947;28;20105;-66
2021/03/04 07:59:09;;;;;;;18.52;9.10;;;8.30;69.10;;;;;;4980302;28;20034;-66
2021/03/04 08:01:35;;;;;;;20.13;9.73;;;8.60;68.70;;;;;;4992438;28;20423;-66
2021/03/04 08:04:01;;;;;;;19.70;10.27;;;8.80;67.10;;;;;;4993562;28;20026;-66
2021/03/04 08:06:27;;;;;;;18.38;9.35;;;8.90;66.90;;;;;;4992812;28;20088;-66
2021/03/04 08:08:53;;;;;;;17.45;9.10;;;9.10;65.40;;;;;;4992999;28;20034;-66
2021/03/04 08:11:29;;;;;;;20.58;10.63;;;9.20;64.60;;;;;;4993242;28;20034;-69
2021/03/04 08:13:56;;;;;;;18.70;9.35;;;9.30;64.50;;;;;;4993435;28;20058;-65
2021/03/04 08:16:22;;;;;;;24.33;10.35;;;9.50;64.30;;;;;;4974837;28;20034;-69
2021/03/04 08:18:58;;;;;;;16.05;8.48;;;9.70;64.90;;;;;;4993451;28;20030;-65
2021/03/04 08:21:25;;;;;;;21.83;10.05;;;9.70;62.90;;;;;;4990566;28;20363;-66
2021/03/04 08:23:52;;;;;;;16.00;8.27;;;9.90;63.00;;;;;;4992499;28;20109;-66
2021/03/04 08:26:27;;;;;;;15.98;7.97;;;10.00;60.30;;;;;;4991819;28;20043;-65
2021/03/04 08:29:06;;;;;;;16.05;8.52;;;10.20;59.20;;;;;;4992425;28;20035;-65
2021/03/04 08:31:33;;;;;;;14.23;8.20;;;10.30;57.60;;;;;;4987551;28;20027;-70
2021/03/04 08:33:59;;;;;;;14.65;7.55;;;10.40;57.20;;;;;;4984080;28;20527;-68
2021/03/04 08:36:25;;;;;;;22.33;7.38;;;10.60;56.70;;;;;;4972228;28;20038;-71
2021/03/04 08:38:52;;;;;;;18.83;7.80;;;10.70;55.90;;;;;;4981603;28;20085;-67
2021/03/04 08:41:22;;;;;;;13.23;6.45;;;10.80;55.60;;;;;;4981463;28;20130;-66
2021/03/04 08:43:48;;;;;;;14.77;7.13;;;10.90;55.10;;;;;;4962752;28;20034;-65
2021/03/04 08:46:14;;;;;;;22.23;8.15;;;11.10;54.00;;;;;;4955310;28;20034;-64
2021/03/04 08:48:45;;;;;;;12.77;7.10;;;11.20;53.50;;;;;;4972130;28;20207;-69
2021/03/04 08:51:12;;;;;;;20.85;7.35;;;11.40;52.90;;;;;;4972629;28;20030;-66
2021/03/04 08:53:38;;;;;;;18.40;7.68;;;11.70;52.20;;;;;;4973606;28;20472;-64
2021/03/04 08:56:08;;;;;;;16.90;7.53;;;11.80;51.90;;;;;;4974864;28;20035;-65
2021/03/04 08:58:43;;;;;;;17.85;7.82;;;11.90;51.90;;;;;;4973153;28;20026;-65
2021/03/04 09:01:10;;;;;;;15.80;7.70;;;12.00;51.80;;;;;;4974547;28;20023;-64
2021/03/04 09:03:36;;;;;;;15.38;7.57;;;12.10;51.50;;;;;;4970927;28;20034;-67
2021/03/04 09:06:06;;;;;;;15.00;7.85;;;12.20;50.90;;;;;;4978298;28;20035;-65
2021/03/04 09:08:36;;;;;;;;;;;12.40;50.70;;;;;;4979915;28;20033;-65
2021/03/04 09:11:02;;;;;;;18.17;7.80;;;12.50;50.10;;;;;;4973715;28;20375;-65
2021/03/04 09:13:28;;;;;;;22.40;8.55;;;12.70;49.40;;;;;;4971571;28;20085;-64
2021/03/04 09:16:05;;;;;;;25.80;8.43;;;12.90;48.80;;;;;;4972181;28;20031;-64
2021/03/04 09:18:31;;;;;;;15.82;8.15;;;12.90;48.40;;;;;;4975452;28;20062;-65
2021/03/04 09:20:58;;;;;;;18.80;8.20;;;12.90;48.80;;;;;;4976995;28;20031;-64
2021/03/04 09:23:24;;;;;;;13.70;6.68;;;12.80;48.50;;;;;;4972363;28;20031;-67
2021/03/04 09:25:55;;;;;;;16.50;7.47;;;12.80;49.20;;;;;;4953279;28;20041;-65
2021/03/04 09:28:21;;;;;;;15.40;7.35;;;12.80;48.90;;;;;;4970174;28;20118;-68
2021/03/04 09:30:47;;;;;;;18.70;7.47;;;12.80;49.10;;;;;;4971061;28;20472;-64
2021/03/04 09:33:26;;;;;;;13.48;7.28;;;12.90;49.00;;;;;;4976708;28;20057;-66
2021/03/04 09:35:59;;;;;;;13.98;7.18;;;13.00;48.80;;;;;;4971988;28;20026;-64
2021/03/04 09:38:30;;;;;;;15.30;7.50;;;13.20;48.80;;;;;;4971587;28;20162;-65
2021/03/04 09:41:09;;;;;;;14.25;7.70;;;13.30;48.60;;;;;;4980813;28;20075;-65
2021/03/04 09:43:43;;;;;;;13.13;7.22;;;13.30;48.70;;;;;;4971368;28;20054;-65
2021/03/04 09:46:09;;;;;;;16.85;7.13;;;13.20;48.80;;;;;;4971722;28;20133;-65
2021/03/04 09:48:39;;;;;;;15.95;6.93;;;13.20;49.40;;;;;;4971381;28;20114;-65
2021/03/04 09:51:05;;;;;;;24.27;7.85;;;13.20;49.40;;;;;;4971716;28;20110;-65
2021/03/04 09:53:31;;;;;;;23.75;8.43;;;13.20;49.10;;;;;;4986445;28;20057;-65
2021/03/04 09:56:03;;;;;;;15.60;6.88;;;13.20;49.20;;;;;;4981922;28;20460;-66
2021/03/04 09:58:28;;;;;;;15.13;7.60;;;13.30;49.00;;;;;;4980977;28;20523;-65
2021/03/04 10:00:56;;;;;;;25.17;8.45;;;13.40;49.20;;;;;;4958983;28;20109;-66
2021/03/04 10:03:37;;;;;;;26.65;8.82;;;13.40;49.40;;;;;;4968387;28;20419;-68
2021/03/04 10:06:06;;;;;;;23.77;8.98;;;13.50;50.10;;;;;;4968623;28;20035;-67
2021/03/04 10:08:41;;;;;;;15.35;7.45;;;13.50;49.70;;;;;;4970177;28;20547;-66
2021/03/04 10:11:07;;;;;;;15.70;7.93;;;13.60;49.60;;;;;;4976918;28;20082;-66
2021/03/04 10:13:33;;;;;;;17.25;8.07;;;13.80;48.60;;;;;;4970482;28;20041;-66
2021/03/04 10:16:10;;;;;;;19.65;7.97;;;13.80;49.10;;;;;;4975863;28;20027;-66
2021/03/04 10:18:35;;;;;;;16.40;7.70;;;13.90;49.10;;;;;;4974766;28;20443;-66
2021/03/04 10:21:02;;;;;;;17.02;8.48;;;13.90;48.30;;;;;;4977494;28;20061;-66
2021/03/04 10:23:27;;;;;;;16.00;8.10;;;13.90;48.80;;;;;;4974178;28;20058;-66
2021/03/04 10:25:53;;;;;;;18.38;8.90;;;14.00;48.90;;;;;;4975276;28;20065;-66
2021/03/04 10:28:19;;;;;;;16.40;7.75;;;14.10;48.80;;;;;;4975927;28;20042;-66
2021/03/04 10:30:45;;;;;;;31.23;9.45;;;14.20;49.40;;;;;;4974481;28;20107;-66
2021/03/04 10:33:11;;;;;;;28.45;8.50;;;14.40;48.20;;;;;;4980109;28;20046;-66
2021/03/04 10:35:37;;;;;;;17.88;8.10;;;14.40;47.60;;;;;;4994472;28;20034;-65
2021/03/04 10:38:04;;;;;;;25.58;9.13;;;14.40;47.90;;;;;;4994243;28;20088;-65
2021/03/04 10:40:30;;;;;;;16.83;9.13;;;14.50;48.70;;;;;;4972368;28;20238;-68
2021/03/04 10:42:56;;;;;;;19.83;7.93;;;14.50;48.40;;;;;;4990118;28;20045;-65
2021/03/04 10:45:22;;;;;;;22.20;9.05;;;14.60;48.80;;;;;;4976050;28;20031;-67
2021/03/04 10:47:48;;;;;;;18.90;8.18;;;14.70;49.20;;;;;;4993631;28;20081;-65
2021/03/04 10:50:20;;;;;;;18.00;8.00;;;14.80;48.80;;;;;;4999221;28;20240;-65
2021/03/04 10:52:47;;;;;;;21.92;9.10;;;14.90;48.80;;;;;;4996019;28;20030;-66
2021/03/04 10:55:15;;;;;;;19.98;11.20;;;15.10;48.50;;;;;;4993947;28;20048;-66
2021/03/04 10:57:40;;;;;;;26.25;12.10;;;15.30;49.40;;;;;;4976418;28;20084;-68
2021/03/04 11:00:10;;;;;;;30.98;12.18;;;15.40;49.30;;;;;;4997099;28;20109;-65
2021/03/04 11:02:36;;;;;;;24.30;11.07;;;15.30;48.40;;;;;;4993424;28;20398;-65
2021/03/04 11:05:04;;;;;;;25.92;11.25;;;15.30;48.90;;;;;;4993531;28;20038;-66
2021/03/04 11:07:29;;;;;;;26.48;11.77;;;15.40;48.80;;;;;;4992714;28;20038;-65
2021/03/04 11:09:55;;;;;;;27.13;11.43;;;15.50;49.40;;;;;;4972322;28;20030;-66
2021/03/04 11:12:21;;;;;;;33.42;12.32;;;15.60;48.70;;;;;;4993072;28;20030;-66
2021/03/04 11:14:47;;;;;;;29.10;12.15;;;15.70;48.40;;;;;;4992398;28;20407;-68
2021/03/04 11:17:13;;;;;;;26.63;10.27;;;15.90;47.60;;;;;;4993629;28;20031;-66
2021/03/04 11:19:39;;;;;;;33.88;9.52;;;16.00;47.80;;;;;;4992452;28;20022;-65
2021/03/04 11:22:05;;;;;;;21.08;10.40;;;16.10;47.30;;;;;;4996163;28;20498;-65
2021/03/04 11:24:32;;;;;;;21.83;10.30;;;16.20;46.50;;;;;;4992769;28;20026;-65
2021/03/04 11:26:57;;;;;;;27.05;9.30;;;16.20;45.30;;;;;;4991719;28;20039;-65
2021/03/04 11:29:23;;;;;;;26.42;10.32;;;16.20;46.30;;;;;;4995187;28;20742;-66
2021/03/04 11:31:49;;;;;;;24.95;11.10;;;16.30;46.40;;;;;;4993180;28;20080;-65
2021/03/04 11:34:14;;;;;;;26.70;10.98;;;16.30;46.20;;;;;;4993098;28;20050;-68
2021/03/04 11:36:40;;;;;;;23.38;11.18;;;16.30;46.60;;;;;;4993159;28;20357;-67
2021/03/04 11:39:06;;;;;;;30.73;11.88;;;16.40;46.10;;;;;;4990945;28;20068;-67
2021/03/04 11:41:32;;;;;;;25.90;13.15;;;16.40;46.30;;;;;;4974704;28;20423;-67
2021/03/04 11:43:58;;;;;;;30.17;12.70;;;16.40;46.90;;;;;;4992434;28;20069;-65
2021/03/04 11:46:24;;;;;;;23.80;10.23;;;16.40;46.70;;;;;;4992999;28;20114;-67
2021/03/04 11:48:52;;;;;;;24.50;9.95;;;16.40;46.90;;;;;;4992486;28;20097;-69
2021/03/04 11:51:18;;;;;;;30.35;12.18;;;16.50;46.70;;;;;;4996036;28;20026;-70
2021/03/04 11:53:44;;;;;;;23.52;10.05;;;16.60;46.20;;;;;;4992853;28;20110;-67
2021/03/04 11:56:09;;;;;;;20.40;9.70;;;16.60;46.70;;;;;;4992774;28;20117;-68
2021/03/04 11:58:36;;;;;;;31.02;10.90;;;16.70;45.20;;;;;;4995060;28;20371;-68
2021/03/04 12:01:02;;;;;;;25.70;9.50;;;16.80;45.30;;;;;;4992637;28;20789;-67
2021/03/04 12:03:28;;;;;;;20.42;8.43;;;16.90;44.40;;;;;;4992169;28;20113;-69
2021/03/04 12:05:53;;;;;;;31.70;10.85;;;16.80;44.70;;;;;;4992391;28;20118;-65
2021/03/04 12:08:19;;;;;;;22.58;10.23;;;16.80;44.00;;;;;;4993420;28;20066;-66
2021/03/04 12:10:45;;;;;;;21.15;10.05;;;16.70;44.70;;;;;;4996200;28;20177;-66
2021/03/04 12:13:11;;;;;;;23.38;10.98;;;16.60;45.30;;;;;;4992675;28;20105;-66
2021/03/04 12:15:39;;;;;;;21.48;9.07;;;16.60;45.20;;;;;;4992652;28;20105;-66
2021/03/04 12:18:05;;;;;;;38.53;11.63;;;16.50;45.90;;;;;;4992491;28;20039;-66
2021/03/04 12:20:31;;;;;;;27.40;11.75;;;16.40;46.60;;;;;;4973669;28;20484;-66
2021/03/04 12:22:58;;;;;;;31.42;9.32;;;16.30;45.40;;;;;;4992671;28;20057;-66
2021/03/04 12:25:24;;;;;;;32.05;8.70;;;16.30;45.30;;;;;;4976102;28;20030;-66
2021/03/04 12:27:50;;;;;;;23.77;8.77;;;16.40;43.90;;;;;;4993269;28;20042;-65
2021/03/04 12:30:17;;;;;;;24.50;8.90;;;16.50;43.30;;;;;;5000232;28;20089;-66
2021/03/04 12:32:43;;;;;;;21.10;7.32;;;16.50;43.00;;;;;;4991313;28;20030;-65
2021/03/04 12:35:10;;;;;;;20.15;6.97;;;16.50;42.40;;;;;;4992819;28;20045;-65
2021/03/04 12:37:36;;;;;;;25.52;7.22;;;16.50;42.20;;;;;;4973633;28;20485;-65
2021/03/04 12:40:03;;;;;;;21.08;5.90;;;16.50;41.60;;;;;;4988618;28;20148;-65
2021/03/04 12:42:29;;;;;;;21.80;5.85;;;16.40;42.00;;;;;;5007017;28;20121;-65
2021/03/04 12:44:54;;;;;;;21.90;6.30;;;16.20;41.70;;;;;;5006686;28;20117;-65